createdAt,value
2018-05-13T00:01:22.973Z,19.90
2018-05-13T00:03:50.625Z,19.80
2018-05-13T00:06:18.318Z,19.80
2018-05-13T00:08:45.941Z,19.80
2018-05-13T00:11:13.590Z,19.80
2018-05-13T00:13:41.225Z,19.80
2018-05-13T00:16:09.699Z,19.90
2018-05-13T00:18:38.916Z,19.80
2018-05-13T00:21:07.339Z,19.80
2018-05-13T00:23:34.951Z,19.70
2018-05-13T00:26:03.355Z,19.70
2018-05-13T00:28:30.986Z,19.70
2018-05-13T00:30:59.362Z,19.70
2018-05-13T00:33:27.780Z,19.80
2018-05-13T00:35:55.471Z,19.70
2018-05-13T00:38:23.094Z,19.70
2018-05-13T00:40:50.778Z,19.80
2018-05-13T00:43:18.384Z,19.80
2018-05-13T00:45:46.781Z,19.80
2018-05-13T00:48:15.196Z,19.80
2018-05-13T00:50:42.971Z,19.80
2018-05-13T00:53:10.520Z,19.80
2018-05-13T00:55:38.159Z,19.80
2018-05-13T00:58:06.691Z,19.70
2018-05-13T01:00:34.450Z,19.70
2018-05-13T01:03:02.080Z,19.70
2018-05-13T01:05:31.462Z,19.70
2018-05-13T01:07:59.253Z,19.70
2018-05-13T01:10:26.955Z,19.70
2018-05-13T01:12:55.733Z,19.70
2018-05-13T01:15:23.409Z,19.70
2018-05-13T01:17:51.165Z,19.60
2018-05-13T01:20:18.814Z,19.60
2018-05-13T01:22:46.427Z,19.60
2018-05-13T01:25:14.800Z,19.50
2018-05-13T01:27:43.212Z,19.50
2018-05-13T01:30:10.836Z,19.50
2018-05-13T01:32:40.001Z,19.40
2018-05-13T01:35:07.614Z,19.40
2018-05-13T01:37:36.021Z,19.40
2018-05-13T01:40:03.740Z,19.40
2018-05-13T01:42:31.410Z,19.40
2018-05-13T01:44:59.790Z,19.20
2018-05-13T01:47:28.205Z,19.30
2018-05-13T01:49:55.825Z,19.30
2018-05-13T01:52:24.373Z,19.30
2018-05-13T01:54:51.995Z,19.20
2018-05-13T01:57:19.641Z,19.20
2018-05-13T01:59:48.335Z,19.20
2018-05-13T02:02:16.769Z,19.20
2018-05-13T02:04:44.423Z,19.10
2018-05-13T02:07:12.077Z,19.00
2018-05-13T02:09:39.684Z,19.00
2018-05-13T02:12:08.080Z,18.90
2018-05-13T02:14:36.480Z,18.90
2018-05-13T02:17:04.094Z,18.90
2018-05-13T02:19:33.264Z,18.80
2018-05-13T02:22:00.881Z,18.80
2018-05-13T02:24:29.309Z,18.80
2018-05-13T02:26:56.948Z,18.70
2018-05-13T02:29:24.593Z,18.70
2018-05-13T02:31:52.217Z,18.70
2018-05-13T02:34:19.860Z,18.80
2018-05-13T02:36:47.496Z,18.80
2018-05-13T02:39:15.134Z,18.80
2018-05-13T02:41:43.510Z,18.70
2018-05-13T02:44:11.912Z,18.70
2018-05-13T02:46:39.524Z,18.60
2018-05-13T02:49:07.935Z,18.60
2018-05-13T02:51:36.364Z,18.60
2018-05-13T02:54:04.027Z,18.50
2018-05-13T02:56:31.693Z,18.60
2018-05-13T02:58:59.342Z,18.60
2018-05-13T03:01:26.958Z,18.60
2018-05-13T03:03:54.670Z,18.60
2018-05-13T03:06:22.544Z,18.60
2018-05-13T03:08:50.195Z,18.60
2018-05-13T03:11:17.808Z,18.60
2018-05-13T03:13:46.248Z,18.60
2018-05-13T03:16:13.895Z,18.50
2018-05-13T03:18:41.513Z,18.50
2018-05-13T03:21:09.953Z,18.50
2018-05-13T03:23:37.579Z,18.40
2018-05-13T03:26:05.231Z,18.50
2018-05-13T03:28:32.869Z,18.40
2018-05-13T03:31:01.282Z,18.40
2018-05-13T03:33:29.677Z,18.40
2018-05-13T03:35:57.347Z,18.40
2018-05-13T03:38:24.979Z,18.40
2018-05-13T03:40:52.625Z,18.40
2018-05-13T03:43:20.997Z,18.40
2018-05-13T03:45:49.410Z,18.40
2018-05-13T03:48:17.084Z,18.40
2018-05-13T03:50:44.737Z,18.40
2018-05-13T03:53:12.368Z,18.40
2018-05-13T03:55:40.773Z,18.30
2018-05-13T03:58:08.384Z,18.30
2018-05-13T04:00:36.152Z,18.30
2018-05-13T04:03:03.769Z,18.30
2018-05-13T04:05:31.464Z,18.30
2018-05-13T04:11:21.779Z,18.20
2018-05-13T04:14:01.648Z,18.20
2018-05-13T04:16:30.104Z,18.20
2018-05-13T04:18:57.723Z,18.10
2018-05-13T04:21:25.369Z,18.20
2018-05-13T04:23:53.748Z,18.10
2018-05-13T04:26:22.156Z,18.10
2018-05-13T04:28:49.838Z,18.00
2018-05-13T04:31:17.502Z,18.10
2018-05-13T04:33:45.138Z,18.00
2018-05-13T04:36:13.036Z,18.00
2018-05-13T04:38:40.765Z,18.10
2018-05-13T04:41:08.384Z,18.00
2018-05-13T04:43:36.024Z,18.00
2018-05-13T04:46:03.646Z,18.00
2018-05-13T04:48:31.451Z,18.10
2018-05-13T04:50:59.311Z,18.10
2018-05-13T04:53:26.953Z,18.10
2018-05-13T04:55:54.579Z,18.20
2018-05-13T04:58:22.987Z,18.30
2018-05-13T05:00:50.612Z,18.30
2018-05-13T05:03:19.954Z,18.40
2018-05-13T05:05:47.662Z,18.40
2018-05-13T05:08:15.307Z,18.50
2018-05-13T05:10:42.917Z,18.50
2018-05-13T05:13:11.320Z,18.60
2018-05-13T05:15:38.954Z,18.60
2018-05-13T05:18:07.362Z,18.70
2018-05-13T05:20:34.998Z,18.70
2018-05-13T05:23:03.436Z,18.90
2018-05-13T05:25:31.052Z,18.80
2018-05-13T05:27:58.801Z,19.00
2018-05-13T05:30:27.220Z,19.10
2018-05-13T05:32:54.841Z,19.10
2018-05-13T05:35:23.259Z,19.30
2018-05-13T05:37:50.876Z,19.20
2018-05-13T05:40:19.318Z,19.50
2018-05-13T05:42:46.931Z,19.40
2018-05-13T05:45:15.317Z,19.60
2018-05-13T05:47:43.745Z,19.70
2018-05-13T05:50:11.373Z,19.70
2018-05-13T05:52:39.030Z,19.70
2018-05-13T05:55:06.636Z,19.80
2018-05-13T05:57:34.388Z,19.80
2018-05-13T06:00:02.009Z,19.90
2018-05-13T06:02:30.438Z,20.00
2018-05-13T06:04:58.104Z,20.00
2018-05-13T06:07:25.757Z,20.10
2018-05-13T06:09:53.383Z,20.20
2018-05-13T06:12:21.056Z,20.30
2018-05-13T06:14:49.450Z,20.50
2018-05-13T06:17:17.080Z,20.50
2018-05-13T06:19:45.555Z,20.70
2018-05-13T06:22:13.281Z,20.60
2018-05-13T06:24:40.927Z,20.70
2018-05-13T06:27:08.539Z,20.80
2018-05-13T06:29:36.962Z,21.00
2018-05-13T06:32:04.576Z,20.90
2018-05-13T06:34:33.004Z,21.20
2018-05-13T06:37:00.618Z,21.10
2018-05-13T06:39:29.031Z,21.40
2018-05-13T06:41:56.746Z,21.40
2018-05-13T06:44:25.192Z,21.60
2018-05-13T06:46:52.859Z,21.60
2018-05-13T06:49:20.529Z,21.80
2018-05-13T06:51:48.143Z,21.90
2018-05-13T06:54:15.830Z,22.00
2018-05-13T06:56:43.470Z,22.10
2018-05-13T06:59:11.138Z,22.20
2018-05-13T07:01:38.757Z,22.40
2018-05-13T07:04:07.952Z,22.50
2018-05-13T07:06:35.593Z,22.50
2018-05-13T07:09:03.256Z,22.60
2018-05-13T07:11:31.029Z,22.70
2018-05-13T07:13:58.884Z,22.80
2018-05-13T07:16:26.658Z,22.90
2018-05-13T07:18:55.034Z,23.20
2018-05-13T07:21:22.810Z,23.10
2018-05-13T07:23:50.417Z,23.30
2018-05-13T07:26:18.835Z,23.50
2018-05-13T07:28:46.501Z,23.40
2018-05-13T07:31:14.157Z,23.60
2018-05-13T07:33:41.782Z,23.70
2018-05-13T07:36:10.195Z,24.00
2018-05-13T07:38:37.856Z,24.00
2018-05-13T07:41:05.524Z,24.10
2018-05-13T07:43:33.216Z,24.20
2018-05-13T07:46:00.824Z,24.30
2018-05-13T07:48:28.444Z,24.40
2018-05-13T07:50:56.089Z,24.60
2018-05-13T07:53:23.727Z,24.60
2018-05-13T07:55:51.378Z,24.80
2018-05-13T07:58:19.002Z,25.00
2018-05-13T08:00:47.476Z,25.20
2018-05-13T08:03:15.089Z,25.20
2018-05-13T08:05:42.739Z,25.30
2018-05-13T08:08:10.356Z,25.40
2018-05-13T08:10:38.012Z,25.60
2018-05-13T08:13:05.627Z,25.70
2018-05-13T08:15:33.268Z,25.90
2018-05-13T08:18:01.690Z,26.00
2018-05-13T08:20:29.366Z,25.90
2018-05-13T08:22:56.970Z,26.10
2018-05-13T08:25:25.333Z,26.30
2018-05-13T08:27:53.755Z,26.40
2018-05-13T08:30:21.412Z,26.30
2018-05-13T08:32:49.062Z,26.40
2018-05-13T08:35:16.697Z,26.50
2018-05-13T08:37:44.346Z,26.80
2018-05-13T08:40:12.196Z,27.00
2018-05-13T08:42:39.909Z,27.10
2018-05-13T08:45:08.433Z,27.30
2018-05-13T08:47:36.117Z,27.30
2018-05-13T08:50:03.797Z,27.40
2018-05-13T08:52:31.522Z,27.40
2018-05-13T08:54:59.205Z,27.60
2018-05-13T08:57:26.856Z,27.80
2018-05-13T08:59:54.467Z,27.90
2018-05-13T09:02:22.877Z,28.00
2018-05-13T09:04:50.514Z,27.90
2018-05-13T09:07:18.175Z,28.10
2018-05-13T09:09:45.811Z,28.10
2018-05-13T09:12:14.228Z,28.20
2018-05-13T09:14:42.138Z,28.20
2018-05-13T09:17:09.802Z,28.20
2018-05-13T09:19:37.420Z,28.30
2018-05-13T09:22:05.073Z,28.40
2018-05-13T09:24:33.499Z,28.60
2018-05-13T09:27:01.157Z,28.50
2018-05-13T09:29:29.128Z,28.70
2018-05-13T09:31:56.728Z,28.80
2018-05-13T09:34:25.154Z,29.00
2018-05-13T09:36:52.772Z,29.00
2018-05-13T09:39:21.295Z,29.30
2018-05-13T09:41:49.629Z,29.40
2018-05-13T09:44:18.051Z,29.50
2018-05-13T09:46:45.673Z,29.40
2018-05-13T09:49:14.115Z,29.50
2018-05-13T09:51:41.920Z,29.50
2018-05-13T09:54:10.435Z,29.80
2018-05-13T09:56:38.427Z,29.70
2018-05-13T09:59:06.094Z,29.80
2018-05-13T10:01:33.713Z,30.00
2018-05-13T10:04:01.406Z,30.10
2018-05-13T10:06:29.500Z,30.20
2018-05-13T10:08:57.155Z,30.30
2018-05-13T10:11:24.787Z,30.30
2018-05-13T10:13:52.441Z,30.40
2018-05-13T10:16:20.062Z,30.40
2018-05-13T10:18:48.819Z,30.50
2018-05-13T10:21:16.434Z,30.50
2018-05-13T10:23:44.823Z,30.60
2018-05-13T10:26:15.254Z,30.60
2018-05-13T10:28:43.054Z,30.70
2018-05-13T10:31:12.817Z,30.70
2018-05-13T10:33:43.072Z,30.70
2018-05-13T10:36:12.951Z,30.70
2018-05-13T10:38:43.611Z,30.80
2018-05-13T10:41:14.455Z,30.80
2018-05-13T10:43:43.597Z,30.80
2018-05-13T10:46:13.448Z,30.90
2018-05-13T10:48:43.867Z,31.00
2018-05-13T10:51:14.461Z,31.20
2018-05-13T10:53:43.025Z,31.20
2018-05-13T10:56:10.713Z,31.10
2018-05-13T10:58:38.340Z,31.20
2018-05-13T11:01:06.316Z,31.30
2018-05-13T11:03:34.202Z,31.30
2018-05-13T11:06:01.866Z,31.40
2018-05-13T11:08:29.613Z,31.40
2018-05-13T11:10:57.248Z,31.50
2018-05-13T11:13:24.948Z,31.50
2018-05-13T11:15:52.818Z,31.60
2018-05-13T11:18:20.578Z,31.60
2018-05-13T11:20:48.417Z,31.70
2018-05-13T11:23:16.764Z,31.80
2018-05-13T11:25:45.161Z,31.90
2018-05-13T11:28:12.879Z,31.90
2018-05-13T11:30:40.503Z,32.00
2018-05-13T11:33:08.163Z,32.10
2018-05-13T11:35:35.960Z,32.20
2018-05-13T11:38:03.611Z,32.20
2018-05-13T11:40:31.234Z,32.20
2018-05-13T11:42:58.891Z,32.20
2018-05-13T11:45:26.496Z,32.20
2018-05-13T11:47:54.174Z,32.20
2018-05-13T11:50:21.781Z,32.20
2018-05-13T11:52:49.840Z,32.20
2018-05-13T11:55:18.592Z,32.30
2018-05-13T11:57:46.249Z,32.20
2018-05-13T12:00:13.862Z,32.30
2018-05-13T12:02:41.563Z,32.40
2018-05-13T12:05:09.185Z,32.40
2018-05-13T12:07:37.602Z,32.40
2018-05-13T12:10:05.207Z,32.40
2018-05-13T12:12:33.853Z,32.30
2018-05-13T12:15:01.554Z,32.20
2018-05-13T12:17:29.291Z,32.20
2018-05-13T12:19:57.043Z,32.10
2018-05-13T12:22:24.712Z,32.00
2018-05-13T12:24:52.354Z,31.80
2018-05-13T12:27:19.971Z,31.80
2018-05-13T12:29:48.620Z,31.60
2018-05-13T12:32:17.325Z,31.60
2018-05-13T12:34:44.990Z,31.50
2018-05-13T12:37:12.601Z,31.40
2018-05-13T12:39:40.509Z,31.30
2018-05-13T12:42:08.154Z,31.30
2018-05-13T12:44:35.794Z,31.20
2018-05-13T12:47:03.421Z,31.10
2018-05-13T12:49:31.873Z,31.00
2018-05-13T12:51:59.484Z,30.90
2018-05-13T12:54:27.122Z,30.90
2018-05-13T12:56:55.582Z,30.80
2018-05-13T12:59:23.223Z,30.80
2018-05-13T13:01:50.865Z,30.80
2018-05-13T13:04:18.483Z,30.70
2018-05-13T13:06:46.266Z,30.70
2018-05-13T13:09:14.649Z,30.70
2018-05-13T13:11:43.065Z,30.70
2018-05-13T13:14:10.699Z,30.60
2018-05-13T13:16:38.334Z,30.60
2018-05-13T13:19:06.993Z,30.60
2018-05-13T13:21:34.645Z,30.50
2018-05-13T13:24:02.260Z,30.60
2018-05-13T13:26:30.672Z,30.50
2018-05-13T13:28:58.292Z,30.50
2018-05-13T13:31:26.707Z,30.60
2018-05-13T13:33:54.327Z,30.50
2018-05-13T13:36:22.067Z,30.60
2018-05-13T13:38:49.669Z,30.60
2018-05-13T13:41:18.075Z,30.60
2018-05-13T13:43:45.714Z,30.60
2018-05-13T13:46:13.370Z,30.70
2018-05-13T13:48:41.749Z,30.70
2018-05-13T13:51:10.156Z,30.80
2018-05-13T13:53:37.775Z,30.80
2018-05-13T13:56:05.438Z,30.80
2018-05-13T13:58:33.841Z,30.80
2018-05-13T14:01:02.304Z,30.80
2018-05-13T14:03:30.846Z,30.90
2018-05-13T14:05:58.457Z,30.80
2018-05-13T14:08:26.989Z,30.90
2018-05-13T14:10:54.963Z,30.90
2018-05-13T14:13:22.600Z,30.90
2018-05-13T14:15:50.219Z,30.90
2018-05-13T14:18:18.636Z,31.00
2018-05-13T14:20:46.249Z,30.90
2018-05-13T14:23:13.888Z,30.90
2018-05-13T14:25:41.532Z,30.90
2018-05-13T14:28:09.210Z,30.90
2018-05-13T14:30:36.849Z,30.90
2018-05-13T14:33:04.534Z,30.80
2018-05-13T14:35:32.158Z,30.70
2018-05-13T14:37:59.850Z,30.70
2018-05-13T14:40:27.484Z,30.60
2018-05-13T14:42:55.099Z,30.50
2018-05-13T14:45:22.944Z,30.50
2018-05-13T14:47:50.660Z,30.50
2018-05-13T14:50:18.239Z,30.50
2018-05-13T14:52:45.948Z,30.50
2018-05-13T14:55:15.112Z,30.30
2018-05-13T14:57:42.722Z,30.30
2018-05-13T15:00:10.360Z,30.30
2018-05-13T15:02:38.130Z,30.30
2018-05-13T15:05:05.773Z,30.30
2018-05-13T15:07:33.444Z,30.20
2018-05-13T15:10:01.078Z,30.10
2018-05-13T15:12:28.739Z,30.00
2018-05-13T15:14:56.440Z,29.90
2018-05-13T15:17:24.095Z,29.90
2018-05-13T15:19:51.941Z,29.80
2018-05-13T15:22:19.592Z,29.70
2018-05-13T15:24:47.199Z,29.60
2018-05-13T15:27:14.841Z,29.60
2018-05-13T15:29:42.450Z,29.50
2018-05-13T15:32:10.858Z,29.40
2018-05-13T15:34:38.516Z,29.30
2018-05-13T15:37:06.997Z,29.30
2018-05-13T15:39:34.669Z,29.30
2018-05-13T15:42:02.354Z,29.40
2018-05-13T15:44:29.977Z,29.30
2018-05-13T15:46:57.620Z,29.30
2018-05-13T15:49:26.019Z,29.20
2018-05-13T15:51:53.660Z,29.10
2018-05-13T15:54:22.100Z,29.00
2018-05-13T15:56:49.789Z,28.90
2018-05-13T15:59:17.423Z,28.90
2018-05-13T16:01:45.071Z,28.90
2018-05-13T16:04:12.695Z,28.80
2018-05-13T16:06:41.120Z,28.70
2018-05-13T16:09:08.797Z,28.60
2018-05-13T16:11:36.416Z,28.60
2018-05-13T16:14:04.054Z,28.60
2018-05-13T16:16:32.432Z,28.50
2018-05-13T16:19:00.088Z,28.40
2018-05-13T16:21:27.727Z,28.40
2018-05-13T16:23:55.381Z,28.40
2018-05-13T16:26:23.048Z,28.40
2018-05-13T16:28:50.658Z,28.40
2018-05-13T16:31:19.105Z,28.40
2018-05-13T16:33:46.720Z,28.40
2018-05-13T16:36:14.357Z,28.40
2018-05-13T16:38:42.729Z,28.20
2018-05-13T16:41:11.136Z,28.20
2018-05-13T16:43:38.828Z,28.10
2018-05-13T16:46:06.464Z,28.10
2018-05-13T16:48:34.085Z,28.10
2018-05-13T16:51:01.721Z,28.10
2018-05-13T16:53:29.331Z,28.00
2018-05-13T16:55:57.960Z,27.90
2018-05-13T16:58:25.773Z,27.90
2018-05-13T17:00:54.218Z,27.80
2018-05-13T17:03:21.828Z,27.70
2018-05-13T17:05:50.266Z,27.70
2018-05-13T17:08:17.892Z,27.70
2018-05-13T17:10:45.538Z,27.60
2018-05-13T17:13:13.462Z,27.60
2018-05-13T17:15:41.143Z,27.60
2018-05-13T17:18:09.686Z,27.50
2018-05-13T17:20:37.533Z,27.40
2018-05-13T17:23:05.193Z,27.40
2018-05-13T17:25:32.828Z,27.40
2018-05-13T17:28:01.389Z,27.30
2018-05-13T17:30:29.144Z,27.20
2018-05-13T17:32:56.830Z,27.20
2018-05-13T17:35:25.213Z,27.20
2018-05-13T17:37:53.937Z,27.20
2018-05-13T17:40:21.553Z,27.20
2018-05-13T17:42:49.945Z,27.10
2018-05-13T17:45:18.388Z,27.10
2018-05-13T17:47:46.096Z,27.00
2018-05-13T17:50:14.586Z,27.00
2018-05-13T17:52:42.451Z,27.00
2018-05-13T17:55:10.131Z,27.00
2018-05-13T17:57:37.768Z,26.90
2018-05-13T18:00:05.405Z,26.80
2018-05-13T18:02:33.111Z,26.80
2018-05-13T18:05:00.909Z,26.80
2018-05-13T18:07:28.546Z,26.80
2018-05-13T18:09:56.166Z,26.80
2018-05-13T18:12:24.707Z,26.70
2018-05-13T18:14:52.314Z,26.60
2018-05-13T18:17:20.750Z,26.60
2018-05-13T18:19:48.360Z,26.60
2018-05-13T18:22:16.790Z,26.50
2018-05-13T18:24:44.550Z,26.50
2018-05-13T18:27:12.436Z,26.50
2018-05-13T18:29:40.063Z,26.40
2018-05-13T18:32:07.869Z,26.40
2018-05-13T18:34:35.492Z,26.40
2018-05-13T18:37:03.151Z,26.30
2018-05-13T18:39:30.769Z,26.30
2018-05-13T18:41:58.420Z,26.20
2018-05-13T18:44:27.848Z,26.00
2018-05-13T18:46:56.736Z,26.10
2018-05-13T18:49:25.200Z,26.00
2018-05-13T18:51:52.965Z,25.90
2018-05-13T18:54:20.622Z,25.90
2018-05-13T18:56:49.322Z,25.90
2018-05-13T18:59:18.481Z,25.70
2018-05-13T19:01:46.110Z,25.70
2018-05-13T19:04:13.760Z,25.80
2018-05-13T19:06:42.196Z,25.60
2018-05-13T19:09:09.872Z,25.60
2018-05-13T19:11:37.499Z,25.60
2018-05-13T19:14:05.241Z,25.60
2018-05-13T19:16:32.876Z,25.50
2018-05-13T19:19:01.616Z,25.30
2018-05-13T19:21:29.357Z,25.30
2018-05-13T19:23:58.613Z,25.20
2018-05-13T19:26:26.318Z,25.10
2018-05-13T19:28:53.944Z,25.10
2018-05-13T19:31:22.355Z,25.00
2018-05-13T19:33:50.985Z,24.90
2018-05-13T19:36:18.607Z,24.90
2018-05-13T19:38:46.261Z,24.90
2018-05-13T19:41:14.668Z,24.80
2018-05-13T19:43:42.281Z,24.80
2018-05-13T19:46:09.917Z,24.70
2018-05-13T19:48:38.184Z,24.60
2018-05-13T19:51:05.825Z,24.60
2018-05-13T19:53:33.437Z,24.50
2018-05-13T19:56:01.073Z,24.50
2018-05-13T19:58:28.681Z,24.40
2018-05-13T20:00:57.261Z,24.30
2018-05-13T20:03:29.044Z,24.30
2018-05-13T20:05:56.581Z,24.20
2018-05-13T20:08:24.958Z,24.20
2018-05-13T20:10:53.330Z,24.10
2018-05-13T20:13:20.981Z,24.00
2018-05-13T20:15:48.820Z,24.00
2018-05-13T20:18:16.468Z,23.90
2018-05-13T20:20:44.220Z,23.80
2018-05-13T20:23:31.796Z,23.80
2018-05-13T20:25:59.417Z,23.70
2018-05-13T20:28:27.073Z,23.70
2018-05-13T20:30:54.684Z,23.70
2018-05-13T20:33:22.293Z,23.70
2018-05-13T20:35:49.994Z,23.70
2018-05-13T20:38:17.612Z,23.60
2018-05-13T20:40:45.259Z,23.60
2018-05-13T20:43:13.688Z,23.50
2018-05-13T20:45:41.402Z,23.40
2018-05-13T20:48:09.783Z,23.40
2018-05-13T20:50:38.163Z,23.30
2018-05-13T20:53:06.570Z,23.30
2018-05-13T20:55:34.252Z,23.20
2018-05-13T20:58:01.909Z,23.20
2018-05-13T21:00:29.524Z,23.20
2018-05-13T21:02:57.956Z,23.20
2018-05-13T21:07:59.933Z,23.10
2018-05-13T21:10:27.549Z,23.10
2018-05-13T21:12:55.928Z,23.00
2018-05-13T21:15:24.331Z,22.90
2018-05-13T21:17:51.942Z,22.80
2018-05-13T21:20:19.590Z,22.80
2018-05-13T21:22:47.216Z,22.70
2018-05-13T21:25:15.130Z,22.60
2018-05-13T21:27:42.796Z,22.60
2018-05-13T21:30:10.469Z,22.50
2018-05-13T21:32:38.091Z,22.50
2018-05-13T21:35:05.725Z,22.40
2018-05-13T21:37:33.534Z,22.40
2018-05-13T21:40:12.993Z,22.30
2018-05-13T21:42:40.630Z,22.30
2018-05-13T21:45:08.269Z,22.30
2018-05-13T21:47:35.900Z,22.30
2018-05-13T21:50:04.311Z,22.20
2018-05-13T21:52:31.919Z,22.10
2018-05-13T21:54:59.540Z,22.10
2018-05-13T21:57:27.182Z,22.00
2018-05-13T21:59:54.806Z,21.90
2018-05-13T22:02:22.556Z,21.90
2018-05-13T22:04:59.221Z,21.90
2018-05-13T22:07:26.872Z,21.80
2018-05-13T22:09:54.483Z,21.80
2018-05-13T22:12:22.880Z,21.70
2018-05-13T22:14:50.498Z,21.60
2018-05-13T22:17:18.136Z,21.70
2018-05-13T22:19:45.745Z,21.70
2018-05-13T22:22:14.224Z,21.60
2018-05-13T22:24:42.673Z,21.60
2018-05-13T22:27:10.315Z,21.60
2018-05-13T22:29:37.922Z,21.60
2018-05-13T22:32:05.701Z,21.60
2018-05-13T22:34:34.091Z,21.60
2018-05-13T22:37:01.738Z,21.50
2018-05-13T22:39:30.197Z,21.60
2018-05-13T22:41:57.848Z,21.50
2018-05-13T22:44:25.479Z,21.50
2018-05-13T22:46:53.112Z,21.50
2018-05-13T22:49:21.493Z,21.40
2018-05-13T22:51:49.893Z,21.40
2018-05-13T22:54:17.509Z,21.40
2018-05-13T22:56:45.911Z,21.40
2018-05-13T22:59:14.289Z,21.30
2018-05-13T23:01:43.037Z,21.30
2018-05-13T23:04:10.714Z,21.30
2018-05-13T23:06:39.112Z,21.20
2018-05-13T23:09:07.559Z,21.20
2018-05-13T23:11:35.180Z,21.20
2018-05-13T23:14:02.804Z,21.20
2018-05-13T23:16:31.261Z,21.20
2018-05-13T23:18:58.900Z,21.10
2018-05-13T23:21:26.512Z,21.20
2018-05-13T23:23:54.164Z,21.20
2018-05-13T23:26:23.316Z,21.10
2018-05-13T23:28:50.927Z,21.10
2018-05-13T23:31:18.564Z,21.10
2018-05-13T23:33:46.177Z,21.10
2018-05-13T23:36:14.603Z,21.00
2018-05-13T23:38:42.241Z,21.00
2018-05-13T23:41:09.915Z,21.00
2018-05-13T23:43:37.488Z,20.90
2018-05-13T23:46:05.143Z,20.80
2018-05-13T23:48:32.756Z,20.70
2018-05-13T23:51:01.138Z,20.70
2018-05-13T23:53:29.575Z,20.70
2018-05-13T23:55:57.198Z,20.70
2018-05-13T23:58:24.813Z,20.70
